createdAt,value
2019-01-17T00:00:55.945Z,2.90
2019-01-17T00:03:42.643Z,2.90
2019-01-17T00:06:42.838Z,3.00
2019-01-17T00:09:18.543Z,2.90
2019-01-17T00:11:54.336Z,2.90
2019-01-17T00:14:35.624Z,2.80
2019-01-17T00:17:22.649Z,2.80
2019-01-17T00:20:06.326Z,2.80
2019-01-17T00:22:52.847Z,2.80
2019-01-17T00:25:35.281Z,2.80
2019-01-17T00:28:22.072Z,2.80
2019-01-17T00:31:01.866Z,2.80
2019-01-17T00:34:01.843Z,2.80
2019-01-17T00:36:53.496Z,2.80
2019-01-17T00:39:41.446Z,2.80
2019-01-17T00:42:28.284Z,2.80
2019-01-17T00:45:15.846Z,2.80
2019-01-17T00:48:09.926Z,2.70
2019-01-17T00:51:00.871Z,2.80
2019-01-17T00:53:47.362Z,2.80
2019-01-17T00:56:30.041Z,2.80
2019-01-17T00:59:18.930Z,2.80
2019-01-17T01:02:03.993Z,2.80
2019-01-17T01:04:57.815Z,2.80
2019-01-17T01:07:51.894Z,2.80
2019-01-17T01:10:31.160Z,2.80
2019-01-17T01:13:18.565Z,2.80
2019-01-17T01:16:12.886Z,2.80
2019-01-17T01:18:56.830Z,2.80
2019-01-17T01:21:43.454Z,2.70
2019-01-17T01:24:49.612Z,2.70
2019-01-17T01:27:36.151Z,2.80
2019-01-17T01:30:25.124Z,2.80
2019-01-17T01:33:02.854Z,2.90
2019-01-17T01:35:54.435Z,3.00
2019-01-17T01:38:43.758Z,3.00
2019-01-17T01:41:40.388Z,3.10
2019-01-17T01:44:40.517Z,3.10
2019-01-17T01:47:33.790Z,3.10
2019-01-17T01:50:18.368Z,3.10
2019-01-17T01:52:59.027Z,3.10
2019-01-17T01:55:28.035Z,3.20
2019-01-17T01:57:57.227Z,3.20
2019-01-17T02:00:25.980Z,3.30
2019-01-17T02:02:54.746Z,3.30
2019-01-17T02:05:23.503Z,3.30
2019-01-17T02:07:52.588Z,3.30
2019-01-17T02:10:21.398Z,3.30
2019-01-17T02:12:50.147Z,3.30
2019-01-17T02:15:19.362Z,3.30
2019-01-17T02:17:48.057Z,3.30
2019-01-17T02:20:17.262Z,3.30
2019-01-17T02:22:46.130Z,3.40
2019-01-17T02:25:15.021Z,3.40
2019-01-17T02:27:44.174Z,3.30
2019-01-17T02:30:14.719Z,3.40
2019-01-17T02:32:43.862Z,3.30
2019-01-17T02:35:12.809Z,3.40
2019-01-17T02:37:41.595Z,3.40
2019-01-17T02:40:12.861Z,3.50
2019-01-17T02:42:41.567Z,3.50
2019-01-17T02:45:12.471Z,3.50
2019-01-17T02:47:41.916Z,3.60
2019-01-17T02:50:11.736Z,3.60
2019-01-17T02:52:40.643Z,3.60
2019-01-17T02:55:10.319Z,3.70
2019-01-17T02:57:43.545Z,3.60
2019-01-17T03:00:15.152Z,3.70
2019-01-17T03:02:43.864Z,3.70
2019-01-17T03:05:13.056Z,3.70
2019-01-17T03:07:42.170Z,3.80
2019-01-17T03:10:16.266Z,3.80
2019-01-17T03:12:45.376Z,3.90
2019-01-17T03:15:14.625Z,4.00
2019-01-17T03:17:43.458Z,4.00
2019-01-17T03:20:13.578Z,4.10
2019-01-17T03:22:42.422Z,4.10
2019-01-17T03:25:11.540Z,4.10
2019-01-17T03:27:40.795Z,4.10
2019-01-17T03:30:16.012Z,4.10
2019-01-17T03:32:45.232Z,4.20
2019-01-17T03:35:14.403Z,4.20
2019-01-17T03:37:43.345Z,4.30
2019-01-17T03:40:15.449Z,4.30
2019-01-17T03:42:44.359Z,4.30
2019-01-17T03:45:13.704Z,4.40
2019-01-17T03:47:42.565Z,4.30
2019-01-17T03:50:14.055Z,4.40
2019-01-17T03:52:43.335Z,4.40
2019-01-17T03:55:14.798Z,4.40
2019-01-17T03:57:44.173Z,4.40
2019-01-17T04:00:15.926Z,4.50
2019-01-17T04:02:44.894Z,4.50
2019-01-17T04:05:14.027Z,4.50
2019-01-17T04:07:42.911Z,4.50
2019-01-17T04:10:13.338Z,4.40
2019-01-17T04:12:42.478Z,4.50
2019-01-17T04:15:11.879Z,4.50
2019-01-17T04:17:40.986Z,4.50
2019-01-17T04:20:13.200Z,4.50
2019-01-17T04:22:41.924Z,4.50
2019-01-17T04:25:10.886Z,4.50
2019-01-17T04:27:40.113Z,4.50
2019-01-17T04:30:15.864Z,4.50
2019-01-17T04:32:44.936Z,4.50
2019-01-17T04:35:14.170Z,4.50
2019-01-17T04:37:44.615Z,4.50
2019-01-17T04:40:14.124Z,4.50
2019-01-17T04:42:42.957Z,4.50
2019-01-17T04:45:13.647Z,4.50
2019-01-17T04:47:42.514Z,4.50
2019-01-17T04:50:13.203Z,4.50
2019-01-17T04:52:42.703Z,4.50
2019-01-17T04:55:12.485Z,4.50
2019-01-17T04:57:41.630Z,4.50
2019-01-17T05:00:16.898Z,4.60
2019-01-17T05:02:45.625Z,4.60
2019-01-17T05:05:14.552Z,4.60
2019-01-17T05:07:43.981Z,4.60
2019-01-17T05:10:13.785Z,4.60
2019-01-17T05:12:42.576Z,4.60
2019-01-17T05:15:11.979Z,4.70
2019-01-17T05:17:41.111Z,4.70
2019-01-17T05:20:13.306Z,4.70
2019-01-17T05:22:41.984Z,4.70
2019-01-17T05:25:12.729Z,4.70
2019-01-17T05:27:41.673Z,4.70
2019-01-17T05:30:15.792Z,4.70
2019-01-17T05:32:44.678Z,4.80
2019-01-17T05:35:13.734Z,4.80
2019-01-17T05:37:42.603Z,4.80
2019-01-17T05:40:15.123Z,4.80
2019-01-17T05:42:44.332Z,4.80
2019-01-17T05:45:13.616Z,4.90
2019-01-17T05:47:44.578Z,4.90
2019-01-17T05:50:15.668Z,5.00
2019-01-17T05:52:44.599Z,5.00
2019-01-17T05:55:19.636Z,5.10
2019-01-17T05:57:44.280Z,5.10
2019-01-17T06:00:15.645Z,5.10
2019-01-17T06:02:44.783Z,5.10
2019-01-17T06:05:14.881Z,5.20
2019-01-17T06:07:43.951Z,5.20
2019-01-17T06:10:13.367Z,5.20
2019-01-17T06:12:42.351Z,5.20
2019-01-17T06:15:12.706Z,5.30
2019-01-17T06:17:41.770Z,5.30
2019-01-17T06:20:12.420Z,5.30
2019-01-17T06:22:41.247Z,5.30
2019-01-17T06:25:10.332Z,5.40
2019-01-17T06:27:39.463Z,5.40
2019-01-17T06:30:10.187Z,5.40
2019-01-17T06:32:38.914Z,5.40
2019-01-17T06:35:09.382Z,5.40
2019-01-17T06:37:38.747Z,5.40
2019-01-17T06:40:12.425Z,5.40
2019-01-17T06:42:41.169Z,5.40
2019-01-17T06:45:09.969Z,5.40
2019-01-17T06:47:38.708Z,5.40
2019-01-17T06:50:07.854Z,5.50
2019-01-17T06:52:37.322Z,5.50
2019-01-17T06:55:06.653Z,5.50
2019-01-17T06:57:35.637Z,5.50
2019-01-17T07:00:05.563Z,5.40
2019-01-17T07:02:35.050Z,5.50
2019-01-17T07:05:04.243Z,5.50
2019-01-17T07:07:33.073Z,5.40
2019-01-17T07:10:01.792Z,5.50
2019-01-17T07:12:30.480Z,5.50
2019-01-17T07:14:59.803Z,5.50
2019-01-17T07:17:28.897Z,5.50
2019-01-17T07:19:57.840Z,5.50
2019-01-17T07:22:27.197Z,5.50
2019-01-17T07:24:56.293Z,5.60
2019-01-17T07:27:25.113Z,5.80
2019-01-17T07:29:54.162Z,5.70
2019-01-17T07:32:23.071Z,5.60
2019-01-17T07:34:51.880Z,5.60
2019-01-17T07:37:20.777Z,5.50
2019-01-17T07:39:49.489Z,5.60
2019-01-17T07:42:18.765Z,5.50
2019-01-17T07:44:47.546Z,5.50
2019-01-17T07:47:16.292Z,5.50
2019-01-17T07:49:44.963Z,5.50
2019-01-17T07:52:13.892Z,5.50
2019-01-17T07:54:42.645Z,5.50
2019-01-17T07:57:11.319Z,5.50
2019-01-17T07:59:40.463Z,5.60
2019-01-17T08:02:10.688Z,5.50
2019-01-17T08:04:39.434Z,5.60
2019-01-17T08:07:08.728Z,5.60
2019-01-17T08:09:37.763Z,5.60
2019-01-17T08:12:06.451Z,5.60
2019-01-17T08:14:35.118Z,5.60
2019-01-17T08:17:04.016Z,5.70
2019-01-17T08:19:32.949Z,5.70
2019-01-17T08:22:02.020Z,5.70
2019-01-17T08:24:30.795Z,5.70
2019-01-17T08:26:59.481Z,5.70
2019-01-17T08:29:28.147Z,5.80
2019-01-17T08:31:56.821Z,5.80
2019-01-17T08:34:28.386Z,5.70
2019-01-17T08:36:56.096Z,5.80
2019-01-17T08:39:24.843Z,5.70
2019-01-17T08:41:53.791Z,5.70
2019-01-17T08:44:22.592Z,5.70
2019-01-17T08:46:51.301Z,5.80
2019-01-17T08:49:20.652Z,5.80
2019-01-17T08:51:51.350Z,5.80
2019-01-17T08:54:20.346Z,5.80
2019-01-17T08:56:49.010Z,5.70
2019-01-17T08:59:17.793Z,5.80
2019-01-17T09:01:46.452Z,5.80
2019-01-17T09:04:15.491Z,5.70
2019-01-17T09:06:44.447Z,5.70
2019-01-17T09:09:13.359Z,5.80
2019-01-17T09:11:42.141Z,5.70
2019-01-17T09:14:10.855Z,5.70
2019-01-17T09:16:39.549Z,5.80
2019-01-17T09:19:08.480Z,5.70
2019-01-17T09:21:37.219Z,5.70
2019-01-17T09:24:06.107Z,5.70
2019-01-17T09:26:34.811Z,5.70
2019-01-17T09:29:03.496Z,5.70
2019-01-17T09:31:32.173Z,5.80
2019-01-17T09:34:01.301Z,5.80
2019-01-17T09:36:29.966Z,5.80
2019-01-17T09:38:59.117Z,5.90
2019-01-17T09:41:27.843Z,5.90
2019-01-17T09:43:57.076Z,6.00
2019-01-17T09:46:25.848Z,6.00
2019-01-17T09:48:54.855Z,6.00
2019-01-17T09:51:23.511Z,6.10
2019-01-17T09:53:52.680Z,6.20
2019-01-17T09:56:21.394Z,6.20
2019-01-17T09:58:50.423Z,6.30
2019-01-17T10:01:19.564Z,6.30
2019-01-17T10:03:48.283Z,6.30
2019-01-17T10:06:16.976Z,6.30
2019-01-17T10:08:45.986Z,6.30
2019-01-17T10:11:14.630Z,6.30
2019-01-17T10:13:43.323Z,6.10
2019-01-17T10:16:36.095Z,6.20
2019-01-17T10:19:31.063Z,6.10
2019-01-17T10:22:24.995Z,6.20
2019-01-17T10:25:22.287Z,6.10
2019-01-17T10:28:12.298Z,6.20
2019-01-17T10:31:09.621Z,6.20
2019-01-17T10:33:44.814Z,6.30
2019-01-17T10:37:10.667Z,6.30
2019-01-17T10:40:22.439Z,6.40
2019-01-17T10:43:09.918Z,6.50
2019-01-17T10:46:18.924Z,6.60
2019-01-17T10:49:30.739Z,6.60
2019-01-17T10:52:35.479Z,6.60
2019-01-17T10:55:52.064Z,6.50
2019-01-17T10:59:13.114Z,6.40
2019-01-17T11:02:23.646Z,6.60
2019-01-17T11:05:20.600Z,6.60
2019-01-17T11:08:32.560Z,6.60
2019-01-17T11:11:32.531Z,6.50
2019-01-17T11:14:42.429Z,6.50
2019-01-17T11:17:29.390Z,6.60
2019-01-17T11:20:33.904Z,6.60
2019-01-17T11:23:34.235Z,6.70
2019-01-17T11:26:57.204Z,6.70
2019-01-17T11:30:07.777Z,6.70
2019-01-17T11:33:24.293Z,6.80
2019-01-17T11:36:18.350Z,6.80
2019-01-17T11:39:21.857Z,7.00
2019-01-17T11:42:15.213Z,7.20
2019-01-17T11:45:28.442Z,7.10
2019-01-17T11:48:32.272Z,7.00
2019-01-17T11:51:20.535Z,6.90
2019-01-17T11:54:21.415Z,6.80
2019-01-17T11:57:16.776Z,6.80
2019-01-17T12:00:01.525Z,6.80
2019-01-17T12:02:49.450Z,6.90
2019-01-17T12:05:18.111Z,6.80
2019-01-17T12:07:46.794Z,6.80
2019-01-17T12:10:15.935Z,6.70
2019-01-17T12:12:45.110Z,6.60
2019-01-17T12:15:14.158Z,6.80
2019-01-17T12:17:42.866Z,6.80
2019-01-17T12:20:12.028Z,6.80
2019-01-17T12:22:41.059Z,6.70
2019-01-17T12:25:10.052Z,6.80
2019-01-17T12:27:42.657Z,6.80
2019-01-17T12:30:13.463Z,6.70
2019-01-17T12:32:42.198Z,6.80
2019-01-17T12:35:11.707Z,6.80
2019-01-17T12:37:43.086Z,6.70
2019-01-17T12:40:14.895Z,6.90
2019-01-17T12:42:44.112Z,7.00
2019-01-17T12:45:12.874Z,7.00
2019-01-17T12:47:42.101Z,7.00
2019-01-17T12:50:14.531Z,7.00
2019-01-17T12:52:43.229Z,7.00
2019-01-17T12:55:11.946Z,6.90
2019-01-17T12:57:40.622Z,7.00
2019-01-17T13:00:18.718Z,7.00
2019-01-17T13:02:47.400Z,6.90
2019-01-17T13:05:16.183Z,6.90
2019-01-17T13:07:44.877Z,6.90
2019-01-17T13:10:14.075Z,6.80
2019-01-17T13:12:42.807Z,6.80
2019-01-17T13:15:12.828Z,6.70
2019-01-17T13:17:41.895Z,6.70
2019-01-17T13:20:12.925Z,6.70
2019-01-17T13:22:41.724Z,6.80
2019-01-17T13:25:12.856Z,6.80
2019-01-17T13:27:41.801Z,6.80
2019-01-17T13:30:19.177Z,6.90
2019-01-17T13:32:51.161Z,7.20
2019-01-17T13:35:23.471Z,7.20
2019-01-17T13:37:52.851Z,7.10
2019-01-17T13:40:22.638Z,7.20
2019-01-17T13:42:51.436Z,7.20
2019-01-17T13:45:20.953Z,7.20
2019-01-17T13:48:00.846Z,7.20
2019-01-17T13:50:34.547Z,7.10
2019-01-17T13:53:03.402Z,7.20
2019-01-17T13:55:32.236Z,7.00
2019-01-17T13:58:00.976Z,7.00
2019-01-17T14:00:29.856Z,7.00
2019-01-17T14:02:59.155Z,6.90
2019-01-17T14:05:28.422Z,6.80
2019-01-17T14:07:57.432Z,6.80
2019-01-17T14:10:29.167Z,6.80
2019-01-17T14:12:58.229Z,6.80
2019-01-17T14:15:29.355Z,6.80
2019-01-17T14:17:59.382Z,6.80
2019-01-17T14:20:28.508Z,6.70
2019-01-17T14:22:57.233Z,6.70
2019-01-17T14:25:30.091Z,6.70
2019-01-17T14:28:09.775Z,6.70
2019-01-17T14:30:38.876Z,6.70
2019-01-17T14:33:07.654Z,6.70
2019-01-17T14:35:36.603Z,6.80
2019-01-17T14:38:07.874Z,6.80
2019-01-17T14:40:36.903Z,6.80
2019-01-17T14:43:07.606Z,6.80
2019-01-17T14:45:42.910Z,6.70
2019-01-17T14:48:16.896Z,6.60
2019-01-17T14:50:45.660Z,6.50
2019-01-17T14:53:14.330Z,6.50
2019-01-17T14:55:42.994Z,6.40
2019-01-17T14:58:11.999Z,6.30
2019-01-17T15:00:40.683Z,6.30
2019-01-17T15:03:09.752Z,6.30
2019-01-17T15:05:38.512Z,6.20
2019-01-17T15:08:07.350Z,6.20
2019-01-17T15:10:39.998Z,6.10
2019-01-17T15:13:08.862Z,6.00
2019-01-17T15:15:37.769Z,6.00
2019-01-17T15:18:07.664Z,5.90
2019-01-17T15:20:36.872Z,5.80
2019-01-17T15:23:07.116Z,5.70
2019-01-17T15:25:36.246Z,5.70
2019-01-17T15:28:05.878Z,5.70
2019-01-17T15:30:34.928Z,5.60
2019-01-17T15:33:04.216Z,5.60
2019-01-17T15:35:33.370Z,5.50
2019-01-17T15:38:02.391Z,5.40
2019-01-17T15:40:32.516Z,5.40
2019-01-17T15:43:01.760Z,5.40
2019-01-17T15:45:30.434Z,5.30
2019-01-17T15:47:59.162Z,5.30
2019-01-17T15:50:27.826Z,5.20
2019-01-17T15:52:56.577Z,5.20
2019-01-17T15:55:25.596Z,5.20
2019-01-17T15:57:54.313Z,5.10
2019-01-17T16:00:32.807Z,5.20
2019-01-17T16:03:01.547Z,5.20
2019-01-17T16:05:30.306Z,5.20
2019-01-17T16:07:59.322Z,5.20
2019-01-17T16:10:28.428Z,5.10
2019-01-17T16:12:57.526Z,5.10
2019-01-17T16:15:27.583Z,5.10
2019-01-17T16:17:56.632Z,5.20
2019-01-17T16:20:25.635Z,5.10
2019-01-17T16:22:55.718Z,5.10
2019-01-17T16:25:26.734Z,5.10
2019-01-17T16:27:55.833Z,5.20
2019-01-17T16:30:30.046Z,5.20
2019-01-17T16:32:58.807Z,5.10
2019-01-17T16:35:27.555Z,5.20
2019-01-17T16:37:56.363Z,5.20
2019-01-17T16:40:25.375Z,5.20
2019-01-17T16:42:54.560Z,5.20
2019-01-17T16:45:24.253Z,5.20
2019-01-17T16:47:53.322Z,5.20
2019-01-17T16:50:26.346Z,5.20
2019-01-17T16:52:57.928Z,5.20
2019-01-17T16:55:26.936Z,5.30
2019-01-17T16:57:55.685Z,5.30
2019-01-17T17:00:30.344Z,5.30
2019-01-17T17:02:59.416Z,5.30
2019-01-17T17:05:28.624Z,5.30
2019-01-17T17:07:57.608Z,5.30
2019-01-17T17:10:26.255Z,5.40
2019-01-17T17:12:54.968Z,5.40
2019-01-17T17:15:23.868Z,5.40
2019-01-17T17:17:53.280Z,5.40
2019-01-17T17:20:22.473Z,5.40
2019-01-17T17:22:52.058Z,5.40
2019-01-17T17:25:21.294Z,5.40
2019-01-17T17:27:55.471Z,5.40
2019-01-17T17:30:22.343Z,5.30
2019-01-17T17:32:51.843Z,5.30
2019-01-17T17:35:20.571Z,5.20
2019-01-17T17:37:49.266Z,5.20
2019-01-17T17:40:23.796Z,5.10
2019-01-17T17:42:52.489Z,4.90
2019-01-17T17:45:21.272Z,4.80
2019-01-17T17:47:49.967Z,4.60
2019-01-17T17:50:20.366Z,4.50
2019-01-17T17:52:49.815Z,4.40
2019-01-17T17:55:18.656Z,4.30
2019-01-17T17:57:47.460Z,4.30
2019-01-17T18:00:37.691Z,4.20
2019-01-17T18:03:06.372Z,4.20
2019-01-17T18:05:35.117Z,4.20
2019-01-17T18:08:04.056Z,4.20
2019-01-17T18:10:33.617Z,4.20
2019-01-17T18:13:02.667Z,4.20
2019-01-17T18:15:31.406Z,4.20
2019-01-17T18:18:00.439Z,4.20
2019-01-17T18:20:29.155Z,4.20
2019-01-17T18:22:58.343Z,4.10
2019-01-17T18:25:27.117Z,4.10
2019-01-17T18:27:56.156Z,4.30
2019-01-17T18:30:25.130Z,4.50
2019-01-17T18:32:53.915Z,4.30
2019-01-17T18:35:22.790Z,4.10
2019-01-17T18:37:51.618Z,4.00
2019-01-17T18:40:20.806Z,4.00
2019-01-17T18:42:49.708Z,4.00
2019-01-17T18:45:19.701Z,4.00
2019-01-17T18:47:48.761Z,3.90
2019-01-17T18:50:23.242Z,3.90
2019-01-17T18:52:52.640Z,3.80
2019-01-17T18:55:21.532Z,3.80
2019-01-17T18:57:50.602Z,3.80
2019-01-17T19:00:27.451Z,3.80
2019-01-17T19:02:56.472Z,3.70
2019-01-17T19:05:25.644Z,3.70
2019-01-17T19:07:54.621Z,3.70
2019-01-17T19:10:23.881Z,3.60
2019-01-17T19:12:52.629Z,3.50
2019-01-17T19:15:27.694Z,3.50
2019-01-17T19:17:56.649Z,3.50
2019-01-17T19:20:26.195Z,3.50
2019-01-17T19:22:55.296Z,3.50
2019-01-17T19:25:24.449Z,3.50
2019-01-17T19:27:53.173Z,3.50
2019-01-17T19:30:23.997Z,3.50
2019-01-17T19:32:54.005Z,3.50
2019-01-17T19:35:23.175Z,3.50
2019-01-17T19:37:52.133Z,3.50
2019-01-17T19:40:22.658Z,3.60
2019-01-17T19:42:51.850Z,3.60
2019-01-17T19:45:22.130Z,3.60
2019-01-17T19:47:51.384Z,3.60
2019-01-17T19:50:26.002Z,3.60
2019-01-17T19:52:54.782Z,3.60
2019-01-17T19:55:23.634Z,3.70
2019-01-17T19:57:52.511Z,3.70
2019-01-17T20:00:23.142Z,3.70
2019-01-17T20:02:52.522Z,3.70
2019-01-17T20:05:22.096Z,3.70
2019-01-17T20:07:53.701Z,3.70
2019-01-17T20:10:26.816Z,3.70
2019-01-17T20:12:57.856Z,3.70
2019-01-17T20:15:26.722Z,3.70
2019-01-17T20:17:55.917Z,3.70
2019-01-17T20:20:31.545Z,3.70
2019-01-17T20:22:55.541Z,3.70
2019-01-17T20:25:24.517Z,3.70
2019-01-17T20:27:54.297Z,3.70
2019-01-17T20:30:27.435Z,3.70
2019-01-17T20:32:59.168Z,3.60
2019-01-17T20:35:28.130Z,3.70
2019-01-17T20:37:58.127Z,3.60
2019-01-17T20:40:28.623Z,3.70
2019-01-17T20:42:57.807Z,3.70
2019-01-17T20:45:28.226Z,3.70
2019-01-17T20:47:57.151Z,3.60
2019-01-17T20:50:28.643Z,3.70
2019-01-17T20:52:57.705Z,3.60
2019-01-17T20:55:26.501Z,3.60
2019-01-17T20:57:55.412Z,3.60
2019-01-17T21:00:51.503Z,3.60
2019-01-17T21:03:24.020Z,3.60
2019-01-17T21:05:52.852Z,3.60
2019-01-17T21:08:22.075Z,3.70
2019-01-17T21:10:50.948Z,3.70
2019-01-17T21:13:20.033Z,3.70
2019-01-17T21:15:49.969Z,3.60
2019-01-17T21:18:20.900Z,3.60
2019-01-17T21:21:01.877Z,3.60
2019-01-17T21:23:32.934Z,3.60
2019-01-17T21:26:02.142Z,3.50
2019-01-17T21:28:31.336Z,3.50
2019-01-17T21:31:00.348Z,3.50
2019-01-17T21:33:29.416Z,3.50
2019-01-17T21:36:00.249Z,3.50
2019-01-17T21:38:29.558Z,3.40
2019-01-17T21:40:58.399Z,3.40
2019-01-17T21:43:27.587Z,3.40
2019-01-17T21:45:56.297Z,3.40
2019-01-17T21:48:26.087Z,3.30
2019-01-17T21:50:54.925Z,3.40
2019-01-17T21:53:23.911Z,3.30
2019-01-17T21:57:31.266Z,3.30
2019-01-17T22:00:00.021Z,3.40
2019-01-17T22:02:29.285Z,3.40
2019-01-17T22:04:57.960Z,3.40
2019-01-17T22:07:28.111Z,3.40
2019-01-17T22:10:01.551Z,3.40
2019-01-17T22:12:32.048Z,3.40
2019-01-17T22:14:58.708Z,3.30
2019-01-17T22:17:27.661Z,3.40
2019-01-17T22:19:56.683Z,3.30
2019-01-17T22:22:25.480Z,3.30
2019-01-17T22:24:56.946Z,3.30
2019-01-17T22:27:25.666Z,3.20
2019-01-17T22:29:56.933Z,3.20
2019-01-17T22:32:25.186Z,3.20
2019-01-17T22:34:54.050Z,3.20
2019-01-17T22:37:23.705Z,3.20
2019-01-17T22:39:52.579Z,3.20
2019-01-17T22:42:21.346Z,3.20
2019-01-17T22:44:53.130Z,3.20
2019-01-17T22:47:21.052Z,3.20
2019-01-17T22:49:50.817Z,3.20
2019-01-17T22:52:19.561Z,3.20
2019-01-17T22:54:48.350Z,3.10
2019-01-17T22:57:17.201Z,3.00
2019-01-17T22:59:45.948Z,3.00
2019-01-17T23:02:23.198Z,3.00
2019-01-17T23:04:53.352Z,3.00
2019-01-17T23:07:23.928Z,2.90
2019-01-17T23:09:52.943Z,3.00
2019-01-17T23:12:21.732Z,3.00
2019-01-17T23:14:50.476Z,2.90
2019-01-17T23:17:19.205Z,2.90
2019-01-17T23:19:47.954Z,2.70
2019-01-17T23:22:16.735Z,2.50
2019-01-17T23:24:45.583Z,2.50
2019-01-17T23:27:14.447Z,2.50
2019-01-17T23:29:43.167Z,2.50
2019-01-17T23:32:11.893Z,2.50
2019-01-17T23:34:40.713Z,2.60
2019-01-17T23:37:09.816Z,2.50
2019-01-17T23:39:38.676Z,2.60
2019-01-17T23:42:07.806Z,2.50
2019-01-17T23:44:36.990Z,2.50
2019-01-17T23:47:06.581Z,2.50
2019-01-17T23:49:35.464Z,2.50
2019-01-17T23:52:04.638Z,2.50
2019-01-17T23:54:33.363Z,2.50
2019-01-17T23:57:02.066Z,2.50
2019-01-17T23:59:31.804Z,2.40
